Time;durP1;ratioP1;P1;durP2;ratioP2;P2;SDS_P1;SDS_P2;PMS_P1;PMS_P2;Temp;Humidity;BMP_temperature;BMP_pressure;BME280_temperature;BME280_humidity;BME280_pressure;Samples;Min_cycle;Max_cycle;Signal;HPM_P1;HPM_P2
2023/08/13 17:48:25;;;;;;;4.55;2.25;;;24.30;96.70;;;;;;5133639;27;20538;-93
2023/08/13 17:50:50;;;;;;;2.10;1.92;;;24.10;97.30;;;;;;5114678;28;20205;-93
2023/08/13 17:53:16;;;;;;;3.40;2.20;;;24.10;97.40;;;;;;5114735;28;20171;-93
2023/08/13 17:55:42;;;;;;;4.30;2.00;;;24.10;97.90;;;;;;5114410;28;20256;-93
2023/08/13 17:58:09;;;;;;;3.35;1.95;;;24.20;97.10;;;;;;5114238;28;20685;-94
2023/08/13 18:00:35;;;;;;;4.80;2.15;;;24.10;96.70;;;;;;5114716;28;20224;-93
2023/08/13 18:03:01;;;;;;;2.00;1.90;;;23.90;98.00;;;;;;5114478;28;20176;-94
2023/08/13 18:05:26;;;;;;;3.00;2.15;;;23.70;98.20;;;;;;5113132;27;20183;-93
2023/08/13 18:07:52;;;;;;;4.55;2.30;;;23.60;98.70;;;;;;5114101;28;20171;-93
2023/08/13 18:10:18;;;;;;;2.97;2.22;;;23.60;98.90;;;;;;5114095;28;20641;-93
2023/08/13 18:12:45;;;;;;;3.47;2.30;;;23.40;99.50;;;;;;5112948;28;20183;-93
2023/08/13 18:15:11;;;;;;;4.40;2.25;;;23.40;99.80;;;;;;5113345;28;20229;-94
2023/08/13 18:17:37;;;;;;;4.15;2.30;;;23.30;99.90;;;;;;5114112;28;20673;-93
2023/08/13 18:20:08;;;;;;;5.97;2.53;;;23.20;99.90;;;;;;5113929;28;20176;-94
2023/08/13 18:22:34;;;;;;;4.90;2.33;;;23.00;99.90;;;;;;5115034;28;20220;-93
2023/08/13 18:25:00;;;;;;;3.50;2.00;;;22.90;99.90;;;;;;5115335;28;20164;-94
2023/08/13 18:27:25;;;;;;;3.65;2.20;;;22.80;99.90;;;;;;5116963;28;20229;-94
2023/08/13 18:29:51;;;;;;;3.08;2.20;;;22.70;99.90;;;;;;5113516;28;20180;-92
2023/08/13 18:32:17;;;;;;;4.10;2.30;;;22.60;99.90;;;;;;5113406;28;20171;-92
2023/08/13 18:34:45;;;;;;;5.00;2.45;;;22.50;99.90;;;;;;5112817;28;20236;-92
2023/08/13 18:37:10;;;;;;;4.35;2.55;;;22.30;99.90;;;;;;5112727;28;20265;-92
2023/08/13 18:39:36;;;;;;;2.58;2.20;;;22.20;99.90;;;;;;5113142;28;20167;-92
2023/08/13 18:42:02;;;;;;;4.57;2.40;;;22.00;99.90;;;;;;5112857;28;20541;-89
2023/08/13 18:44:27;;;;;;;3.38;2.50;;;21.90;99.90;;;;;;5113673;28;20237;-89
2023/08/13 18:46:53;;;;;;;6.05;2.30;;;21.80;99.90;;;;;;5112351;28;20712;-89
2023/08/13 18:49:18;;;;;;;3.20;2.17;;;21.60;99.90;;;;;;5113620;28;20175;-89
2023/08/13 18:51:44;;;;;;;6.03;2.53;;;21.50;99.90;;;;;;5112845;28;20214;-89
2023/08/13 18:54:10;;;;;;;6.18;2.70;;;21.40;99.90;;;;;;5112764;28;20186;-89
2023/08/13 18:56:35;;;;;;;7.15;4.60;;;21.30;99.90;;;;;;5112311;28;20245;-89
2023/08/13 18:59:01;;;;;;;7.82;4.38;;;21.10;99.90;;;;;;5103834;28;20175;-89
2023/08/13 19:01:27;;;;;;;6.35;3.83;;;21.10;99.90;;;;;;5098433;28;20186;-88
2023/08/13 19:03:52;;;;;;;4.10;3.03;;;20.90;99.90;;;;;;5099110;28;20172;-89
2023/08/13 19:06:18;;;;;;;6.03;2.80;;;20.80;99.90;;;;;;5098844;28;20196;-89
2023/08/13 19:08:44;;;;;;;4.10;2.65;;;20.60;99.90;;;;;;5099396;28;20164;-89
2023/08/13 19:11:10;;;;;;;4.20;2.50;;;20.60;99.90;;;;;;5098962;28;20188;-89
2023/08/13 19:13:35;;;;;;;4.55;2.80;;;20.50;99.90;;;;;;5098771;28;20180;-89
2023/08/13 19:16:01;;;;;;;4.70;2.80;;;20.50;99.90;;;;;;5098428;28;20557;-89
2023/08/13 19:18:27;;;;;;;4.30;2.85;;;20.40;99.90;;;;;;5098452;28;20179;-89
2023/08/13 19:20:53;;;;;;;5.13;2.85;;;20.30;99.90;;;;;;5098506;28;20180;-89
2023/08/13 19:23:20;;;;;;;5.20;2.30;;;20.20;99.90;;;;;;5098261;28;20710;-89
2023/08/13 19:25:46;;;;;;;7.57;3.10;;;20.20;99.90;;;;;;5098076;28;20192;-90
2023/08/13 19:28:13;;;;;;;4.03;2.50;;;20.20;99.90;;;;;;5098958;28;20615;-89
2023/08/13 19:30:48;;;;;;;2.92;2.47;;;20.10;99.90;;;;;;5098324;28;20178;-89
2023/08/13 19:33:14;;;;;;;4.75;2.33;;;20.00;99.90;;;;;;5098794;28;20164;-90
2023/08/13 19:35:40;;;;;;;6.90;3.03;;;20.00;99.90;;;;;;5098842;28;20250;-90
2023/08/13 19:38:09;;;;;;;7.78;2.90;;;19.90;99.90;;;;;;5098199;28;20200;-90
2023/08/13 19:40:38;;;;;;;7.07;2.97;;;19.90;99.90;;;;;;5098898;28;20179;-90
2023/08/13 19:43:05;;;;;;;4.38;3.08;;;19.80;99.90;;;;;;5098074;28;20175;-90
2023/08/13 19:45:30;;;;;;;4.65;2.83;;;19.70;99.90;;;;;;5098631;28;20529;-90
2023/08/13 19:47:59;;;;;;;5.75;2.75;;;19.70;99.90;;;;;;5097962;28;20278;-89
2023/08/13 19:50:25;;;;;;;7.07;2.65;;;19.60;99.90;;;;;;5098125;28;20180;-89
2023/08/13 19:52:51;;;;;;;4.78;2.83;;;19.50;99.90;;;;;;5097965;28;20183;-89
2023/08/13 19:55:17;;;;;;;3.80;2.60;;;19.40;99.90;;;;;;5098479;28;20519;-89
2023/08/13 19:57:42;;;;;;;5.35;2.60;;;19.40;99.90;;;;;;5098333;28;20203;-89
2023/08/13 20:00:09;;;;;;;2.78;2.58;;;19.40;99.90;;;;;;5097932;28;20650;-89
2023/08/13 20:02:37;;;;;;;6.70;2.92;;;19.30;99.90;;;;;;5098661;28;20169;-89
2023/08/13 20:05:06;;;;;;;4.28;3.22;;;19.20;99.90;;;;;;5098857;28;20187;-89
2023/08/13 20:07:31;;;;;;;4.18;2.90;;;19.10;99.90;;;;;;5097316;28;20203;-89
2023/08/13 20:09:57;;;;;;;4.30;2.63;;;19.10;99.90;;;;;;5097169;28;20622;-89
2023/08/13 20:12:23;;;;;;;4.10;2.80;;;19.00;99.90;;;;;;5097279;28;20176;-89
2023/08/13 20:14:48;;;;;;;3.75;2.67;;;19.00;99.90;;;;;;5097866;28;20172;-89
2023/08/13 20:17:14;;;;;;;3.55;2.90;;;19.00;99.90;;;;;;5097055;28;20200;-89
2023/08/13 20:19:41;;;;;;;7.28;2.92;;;19.00;99.90;;;;;;5097569;28;20192;-89
2023/08/13 20:22:07;;;;;;;5.10;2.50;;;18.90;99.90;;;;;;5097552;28;20236;-89
2023/08/13 20:24:32;;;;;;;6.70;2.75;;;19.00;99.90;;;;;;5097482;28;20202;-89
2023/08/13 20:26:58;;;;;;;4.60;2.80;;;19.00;99.90;;;;;;5097291;28;20195;-89
2023/08/13 20:29:23;;;;;;;6.25;3.00;;;18.80;99.90;;;;;;5097369;28;20176;-89
2023/08/13 20:31:49;;;;;;;3.55;2.83;;;18.80;99.90;;;;;;5096880;28;20214;-89
2023/08/13 20:34:15;;;;;;;8.15;3.20;;;18.70;99.90;;;;;;5097020;28;20195;-89
2023/08/13 20:36:40;;;;;;;3.53;3.05;;;18.70;99.90;;;;;;5096780;28;20204;-89
2023/08/13 20:39:09;;;;;;;9.77;3.22;;;18.70;99.90;;;;;;5097866;28;20263;-89
2023/08/13 20:41:35;;;;;;;3.60;2.50;;;18.50;99.90;;;;;;5097598;28;20176;-89
2023/08/13 20:44:01;;;;;;;9.88;2.63;;;18.50;99.90;;;;;;5096742;28;20550;-89
2023/08/13 20:46:26;;;;;;;4.95;2.80;;;18.40;99.90;;;;;;5096523;28;20218;-89
2023/08/13 20:48:52;;;;;;;7.32;3.42;;;18.40;99.90;;;;;;5097043;28;20172;-89
2023/08/13 20:51:17;;;;;;;7.45;3.40;;;18.40;99.90;;;;;;5096917;28;20176;-89
2023/08/13 20:53:43;;;;;;;11.77;3.22;;;18.30;99.90;;;;;;5096726;28;20177;-89
2023/08/13 20:56:09;;;;;;;6.82;2.70;;;18.30;99.90;;;;;;5096279;28;20689;-90
2023/08/13 20:58:34;;;;;;;7.03;2.97;;;18.40;99.90;;;;;;5097467;28;20175;-89
2023/08/13 21:01:00;;;;;;;7.15;3.20;;;18.30;99.90;;;;;;5096708;28;20172;-89
2023/08/13 21:03:25;;;;;;;4.07;3.17;;;18.10;99.90;;;;;;5097191;28;20211;-89
2023/08/13 21:05:51;;;;;;;5.15;3.10;;;18.10;99.90;;;;;;5096301;28;20192;-89
2023/08/13 21:08:16;;;;;;;9.00;2.90;;;18.10;99.90;;;;;;5096244;28;20183;-89
2023/08/13 21:10:42;;;;;;;6.03;2.40;;;18.10;99.90;;;;;;5097107;28;20176;-89
2023/08/13 21:13:08;;;;;;;5.90;2.67;;;18.10;99.90;;;;;;5096387;28;20187;-89
2023/08/13 21:15:33;;;;;;;3.20;2.53;;;18.10;99.90;;;;;;5096958;28;20172;-89
2023/08/13 21:17:59;;;;;;;4.38;2.75;;;18.00;99.90;;;;;;5096593;28;20196;-89
2023/08/13 21:20:25;;;;;;;4.47;2.90;;;18.00;99.90;;;;;;5096350;28;20179;-89
2023/08/13 21:22:50;;;;;;;6.93;2.95;;;17.90;99.90;;;;;;5095766;28;20228;-90
2023/08/13 21:25:16;;;;;;;9.25;2.70;;;17.90;99.90;;;;;;5095768;28;20210;-89
2023/08/13 21:27:41;;;;;;;4.38;2.90;;;17.90;99.90;;;;;;5096702;28;20183;-90
2023/08/13 21:30:12;;;;;;;7.38;3.00;;;17.90;99.90;;;;;;5096945;28;20184;-89
2023/08/13 21:32:38;;;;;;;3.85;2.88;;;17.80;99.90;;;;;;5096680;28;20172;-89
2023/08/13 21:35:05;;;;;;;6.75;3.20;;;17.60;99.90;;;;;;5096635;28;20680;-89
2023/08/13 21:37:31;;;;;;;4.18;2.92;;;17.60;99.90;;;;;;5095926;28;20204;-89
2023/08/13 21:39:57;;;;;;;5.00;2.92;;;17.60;99.90;;;;;;5096601;28;20202;-89
2023/08/13 21:42:22;;;;;;;3.97;3.50;;;17.60;99.90;;;;;;5096049;28;20543;-89
2023/08/13 21:44:48;;;;;;;7.63;3.70;;;17.70;99.90;;;;;;5096845;28;20176;-89
2023/08/13 21:47:13;;;;;;;7.93;3.28;;;17.60;99.90;;;;;;5095592;28;20218;-89
2023/08/13 21:49:39;;;;;;;5.90;3.20;;;17.50;99.90;;;;;;5095765;28;20176;-90
2023/08/13 21:52:05;;;;;;;8.07;3.25;;;17.50;99.90;;;;;;5095614;28;20176;-89
2023/08/13 21:54:30;;;;;;;6.43;3.83;;;17.50;99.90;;;;;;5095701;28;20245;-89
2023/08/13 21:56:56;;;;;;;5.45;3.50;;;17.50;99.90;;;;;;5096118;28;20219;-89
2023/08/13 21:59:22;;;;;;;4.85;3.40;;;17.30;99.90;;;;;;5095915;28;20209;-89
2023/08/13 22:01:48;;;;;;;5.90;3.13;;;17.30;99.90;;;;;;5096403;28;20176;-90
2023/08/13 22:04:14;;;;;;;5.85;3.40;;;17.20;99.90;;;;;;5095406;28;20262;-90
2023/08/13 22:06:40;;;;;;;4.72;3.08;;;17.20;99.90;;;;;;5096031;28;20216;-89
2023/08/13 22:09:05;;;;;;;5.97;3.25;;;17.10;99.90;;;;;;5096178;28;20221;-89
2023/08/13 22:11:31;;;;;;;5.95;3.10;;;17.20;99.90;;;;;;5095777;28;20665;-90
2023/08/13 22:13:56;;;;;;;7.65;3.67;;;17.10;99.90;;;;;;5096316;28;20187;-89
2023/08/13 22:16:22;;;;;;;4.78;3.70;;;17.10;99.90;;;;;;5095576;28;20196;-89
2023/08/13 22:18:48;;;;;;;4.75;3.28;;;17.00;99.90;;;;;;5095738;28;20180;-91
2023/08/13 22:21:13;;;;;;;7.65;3.25;;;17.10;99.90;;;;;;5096185;28;20197;-91
2023/08/13 22:23:39;;;;;;;5.25;3.40;;;17.00;99.90;;;;;;5096256;28;20172;-91
2023/08/13 22:26:05;;;;;;;5.20;2.95;;;16.90;99.90;;;;;;5095299;28;20188;-91
2023/08/13 22:28:30;;;;;;;3.90;3.33;;;16.90;99.90;;;;;;5095359;28;20180;-91
2023/08/13 22:30:59;;;;;;;7.20;3.10;;;16.90;99.90;;;;;;5095714;28;20180;-91
2023/08/13 22:33:24;;;;;;;13.50;3.53;;;16.90;99.90;;;;;;5096268;28;20172;-91
2023/08/13 22:35:50;;;;;;;5.38;3.17;;;16.90;99.90;;;;;;5099448;28;20221;-91
2023/08/13 22:38:15;;;;;;;6.88;3.10;;;16.90;99.90;;;;;;5099649;28;20203;-91
2023/08/13 22:40:41;;;;;;;4.63;3.25;;;16.90;99.90;;;;;;5099728;28;20176;-92
2023/08/13 22:43:07;;;;;;;6.07;3.40;;;17.00;99.90;;;;;;5101790;28;20198;-88
2023/08/13 22:45:32;;;;;;;4.03;3.17;;;17.00;99.90;;;;;;5100977;28;20172;-87
2023/08/13 22:47:58;;;;;;;8.82;3.30;;;16.90;99.90;;;;;;5102071;28;20229;-87
2023/08/13 22:50:24;;;;;;;9.50;3.17;;;16.90;99.90;;;;;;5101002;28;20180;-87
2023/08/13 22:52:50;;;;;;;7.53;2.83;;;16.90;99.90;;;;;;5101133;28;20172;-87
2023/08/13 22:55:15;;;;;;;3.70;2.55;;;16.90;99.90;;;;;;5100997;28;20176;-87
2023/08/13 22:57:41;;;;;;;5.80;3.03;;;16.80;99.90;;;;;;5101803;28;20638;-87
2023/08/13 23:00:07;;;;;;;6.70;3.30;;;16.80;99.90;;;;;;5101027;28;20179;-87
2023/08/13 23:02:33;;;;;;;8.57;3.05;;;16.90;99.90;;;;;;5101469;28;20176;-87
2023/08/13 23:04:59;;;;;;;4.68;3.00;;;16.80;99.90;;;;;;5101630;28;20197;-87
2023/08/13 23:07:24;;;;;;;5.60;2.97;;;16.70;99.90;;;;;;5100748;28;20200;-87
2023/08/13 23:09:50;;;;;;;8.30;2.90;;;16.70;99.90;;;;;;5100469;28;20644;-87
2023/08/13 23:12:16;;;;;;;6.10;3.20;;;16.80;99.90;;;;;;5100438;28;20176;-87
2023/08/13 23:14:42;;;;;;;7.63;3.75;;;16.70;99.90;;;;;;5100306;28;20229;-92
2023/08/13 23:17:08;;;;;;;5.53;3.20;;;16.80;99.90;;;;;;5098263;28;20212;-91
2023/08/13 23:19:33;;;;;;;5.97;3.42;;;16.70;99.90;;;;;;5098629;28;20168;-92
2023/08/13 23:21:59;;;;;;;5.00;3.00;;;16.80;99.90;;;;;;5098777;28;20212;-92
2023/08/13 23:24:25;;;;;;;5.53;2.90;;;16.70;99.90;;;;;;5098694;28;20179;-92
2023/08/13 23:26:52;;;;;;;5.97;2.88;;;16.80;99.90;;;;;;5098757;28;20287;-92
2023/08/13 23:29:19;;;;;;;8.13;2.90;;;16.80;99.90;;;;;;5098151;28;20172;-92
2023/08/13 23:31:49;;;;;;;6.15;2.70;;;16.80;99.90;;;;;;5098263;28;20654;-90
2023/08/13 23:34:15;;;;;;;4.22;2.95;;;16.80;99.90;;;;;;5098126;28;20180;-89
2023/08/13 23:36:41;;;;;;;4.25;2.45;;;16.70;99.90;;;;;;5098119;28;20290;-89
2023/08/13 23:39:08;;;;;;;7.55;3.58;;;16.80;99.90;;;;;;5098175;28;20169;-89
2023/08/13 23:41:38;;;;;;;6.05;3.45;;;16.80;99.90;;;;;;5097833;28;20259;-89
2023/08/13 23:44:04;;;;;;;3.53;3.22;;;16.60;99.90;;;;;;5098458;28;20203;-89
2023/08/13 23:46:30;;;;;;;5.75;3.30;;;16.70;99.90;;;;;;5097814;28;20241;-89
2023/08/13 23:48:56;;;;;;;4.38;2.83;;;16.70;99.90;;;;;;5097994;28;20176;-89
2023/08/13 23:51:21;;;;;;;6.43;3.00;;;16.80;99.90;;;;;;5098043;28;20177;-89
2023/08/13 23:53:47;;;;;;;7.20;3.38;;;16.80;99.90;;;;;;5097908;28;20677;-89
2023/08/13 23:56:13;;;;;;;10.23;3.22;;;16.80;99.90;;;;;;5098151;28;20191;-89
2023/08/13 23:58:38;;;;;;;5.55;3.15;;;16.90;99.90;;;;;;5097589;28;20187;-89
